Time;durP1;ratioP1;P1;durP2;ratioP2;P2;SDS_P1;SDS_P2;PMS_P1;PMS_P2;Temp;Humidity;BMP_temperature;BMP_pressure;BME280_temperature;BME280_humidity;BME280_pressure;Samples;Min_cycle;Max_cycle;Signal;HPM_P1;HPM_P2
2021/10/27 00:05:56;;;;;;;45.07;18.83;;;;;;;;;;6236895;23;20167;-91
2021/10/27 00:09:01;;;;;;;64.80;19.37;;;;;;;;;;6237160;23;20171;-90
2021/10/27 00:12:08;;;;;;;49.97;18.50;;;;;;;;;;6233293;23;20166;-90
2021/10/27 00:15:29;;;;;;;44.47;17.97;;;;;;;;;;6236521;23;20152;-89
2021/10/27 00:18:36;;;;;;;44.13;17.70;;;;;;;;;;6235124;23;20190;-90
2021/10/27 00:21:41;;;;;;;47.93;16.27;;;;;;;;;;6228555;23;20190;-90
2021/10/27 00:24:46;;;;;;;40.83;16.40;;;;;;;;;;6229256;23;20526;-91
2021/10/27 00:27:52;;;;;;;35.97;16.60;;;;;;;;;;6228436;23;20155;-90
2021/10/27 00:30:57;;;;;;;33.67;16.17;;;;;;;;;;6228744;23;20238;-91
2021/10/27 00:34:03;;;;;;;40.80;17.60;;;;;;;;;;6230563;23;20171;-90
2021/10/27 00:37:08;;;;;;;70.50;17.67;;;;;;;;;;6229257;23;20159;-90
2021/10/27 00:40:14;;;;;;;70.57;18.93;;;;;;;;;;6227642;23;20219;-90
2021/10/27 00:43:19;;;;;;;84.30;20.53;;;;;;;;;;6228481;23;20170;-91
2021/10/27 00:46:26;;;;;;;56.30;19.40;;;;;;;;;;6227686;23;20155;-90
2021/10/27 00:49:34;;;;;;;47.20;19.67;;;;;;;;;;6228367;23;20216;-91
2021/10/27 00:52:39;;;;;;;82.63;19.37;;;;;;;;;;6228990;23;20163;-90
2021/10/27 00:55:45;;;;;;;54.70;19.80;;;;;;;;;;6229283;23;20171;-91
2021/10/27 00:58:50;;;;;;;44.83;19.00;;;;;;;;;;6228920;23;20219;-91
2021/10/27 01:01:56;;;;;;;43.80;18.50;;;;;;;;;;6228625;23;20194;-90
2021/10/27 01:05:03;;;;;;;49.23;20.40;;;;;;;;;;6230669;23;20174;-91
2021/10/27 01:08:08;;;;;;;50.50;19.77;;;;;;;;;;6230141;23;20171;-91
2021/10/27 01:11:14;;;;;;;56.87;20.13;;;;;;;;;;6230975;23;20171;-91
2021/10/27 01:14:19;;;;;;;43.10;19.53;;;;;;;;;;6230971;23;20246;-90
2021/10/27 01:17:25;;;;;;;75.43;20.23;;;;;;;;;;6230914;23;20691;-91
2021/10/27 01:20:32;;;;;;;67.77;19.73;;;;;;;;;;6229919;23;20211;-90
2021/10/27 01:23:38;;;;;;;54.67;19.67;;;;;;;;;;6231298;23;20174;-91
2021/10/27 01:26:43;;;;;;;49.03;18.50;;;;;;;;;;6228991;23;20621;-92
2021/10/27 01:29:48;;;;;;;45.63;18.60;;;;;;;;;;6229464;23;20167;-92
2021/10/27 01:32:54;;;;;;;59.13;18.63;;;;;;;;;;6229026;23;20302;-92
2021/10/27 01:36:00;;;;;;;39.93;17.17;;;;;;;;;;6229105;23;20218;-91
2021/10/27 01:39:07;;;;;;;46.43;18.27;;;;;;;;;;6230323;23;20516;-91
2021/10/27 01:42:12;;;;;;;41.33;17.17;;;;;;;;;;6228209;23;20194;-90
2021/10/27 01:45:17;;;;;;;42.30;17.60;;;;;;;;;;6230698;23;20170;-91
2021/10/27 01:48:22;;;;;;;40.63;16.73;;;;;;;;;;6229733;23;20170;-90
2021/10/27 01:51:29;;;;;;;37.43;16.67;;;;;;;;;;6230231;23;20167;-90
2021/10/27 01:54:34;;;;;;;55.60;16.57;;;;;;;;;;6228025;23;20170;-90
2021/10/27 01:57:40;;;;;;;48.60;16.87;;;;;;;;;;6229656;23;20174;-90
2021/10/27 02:00:45;;;;;;;39.23;17.57;;;;;;;;;;6229545;23;20207;-89
2021/10/27 02:03:50;;;;;;;66.43;17.20;;;;;;;;;;6229106;23;20167;-90
2021/10/27 02:06:57;;;;;;;45.40;16.70;;;;;;;;;;6229438;23;20170;-90
2021/10/27 02:10:03;;;;;;;40.13;17.40;;;;;;;;;;6229097;23;20171;-91
2021/10/27 02:13:08;;;;;;;49.00;16.50;;;;;;;;;;6229364;23;20175;-90
2021/10/27 02:16:18;;;;;;;54.87;17.10;;;;;;;;;;6230940;23;20267;-90
2021/10/27 02:19:23;;;;;;;61.43;16.83;;;;;;;;;;6228889;23;20166;-90
2021/10/27 02:22:30;;;;;;;149.17;19.17;;;;;;;;;;6228504;23;20234;-89
2021/10/27 02:25:34;;;;;;;60.33;18.80;;;;;;;;;;6229375;23;20535;-91
2021/10/27 02:28:39;;;;;;;56.87;17.57;;;;;;;;;;6228196;23;20170;-91
2021/10/27 02:31:44;;;;;;;54.97;17.93;;;;;;;;;;6229465;23;20171;-90
2021/10/27 02:34:49;;;;;;;84.70;18.43;;;;;;;;;;6230087;23;20264;-91
2021/10/27 02:37:59;;;;;;;53.23;17.40;;;;;;;;;;6228853;23;20163;-90
2021/10/27 02:41:04;;;;;;;54.17;17.87;;;;;;;;;;6229803;23;20235;-92
2021/10/27 02:44:11;;;;;;;106.63;19.40;;;;;;;;;;6226584;23;20182;-91
2021/10/27 02:47:16;;;;;;;109.53;19.27;;;;;;;;;;6228953;23;20255;-92
2021/10/27 02:50:21;;;;;;;55.63;17.47;;;;;;;;;;6228990;23;20167;-91
2021/10/27 02:53:27;;;;;;;40.60;16.13;;;;;;;;;;6228398;23;20626;-92
2021/10/27 02:56:33;;;;;;;68.57;17.87;;;;;;;;;;6227603;23;20167;-91
2021/10/27 02:59:38;;;;;;;59.10;18.60;;;;;;;;;;6228556;23;20186;-90
2021/10/27 03:02:43;;;;;;;54.93;16.47;;;;;;;;;;6226676;23;20685;-92
2021/10/27 03:05:49;;;;;;;48.40;16.00;;;;;;;;;;6227686;23;20210;-89
2021/10/27 03:08:56;;;;;;;60.50;17.00;;;;;;;;;;6229373;23;20176;-92
2021/10/27 03:12:01;;;;;;;38.00;15.70;;;;;;;;;;6229274;23;20171;-92
2021/10/27 03:19:20;;;;;;;42.33;16.83;;;;;;;;;;6228593;23;20148;-89
2021/10/27 03:22:25;;;;;;;39.73;17.13;;;;;;;;;;6227673;23;20191;-92
2021/10/27 03:25:31;;;;;;;41.70;17.37;;;;;;;;;;6226886;23;20158;-90
2021/10/27 03:28:36;;;;;;;38.17;16.27;;;;;;;;;;6226321;23;20271;-90
2021/10/27 03:31:41;;;;;;;38.37;16.90;;;;;;;;;;6226191;23;20242;-91
2021/10/27 03:34:48;;;;;;;32.93;14.67;;;;;;;;;;6226826;23;20175;-89
2021/10/27 03:37:54;;;;;;;38.33;16.17;;;;;;;;;;6226308;23;20178;-90
2021/10/27 03:41:00;;;;;;;33.33;16.50;;;;;;;;;;6230423;23;20167;-90
2021/10/27 03:44:06;;;;;;;38.87;16.30;;;;;;;;;;6229596;23;20174;-90
2021/10/27 03:47:11;;;;;;;38.93;17.27;;;;;;;;;;6228651;23;20167;-91
2021/10/27 03:50:16;;;;;;;38.87;16.80;;;;;;;;;;6227624;23;20206;-91
2021/10/27 03:53:21;;;;;;;41.27;16.60;;;;;;;;;;6228505;23;20171;-89
2021/10/27 03:56:28;;;;;;;39.53;16.00;;;;;;;;;;6228957;23;20223;-89
2021/10/27 03:59:33;;;;;;;30.93;15.47;;;;;;;;;;6228617;23;20218;-89
2021/10/27 04:02:41;;;;;;;34.80;16.17;;;;;;;;;;6228746;23;20195;-91
2021/10/27 04:05:46;;;;;;;35.63;16.13;;;;;;;;;;6228115;23;20180;-91
2021/10/27 04:08:52;;;;;;;43.27;17.90;;;;;;;;;;6228146;23;20167;-91
2021/10/27 04:11:59;;;;;;;40.20;17.77;;;;;;;;;;6230196;23;20175;-90
2021/10/27 04:15:08;;;;;;;40.07;17.97;;;;;;;;;;6230901;23;20167;-90
2021/10/27 04:18:14;;;;;;;49.30;17.40;;;;;;;;;;6228465;23;20457;-90
2021/10/27 04:21:20;;;;;;;41.03;17.83;;;;;;;;;;6228356;23;20183;-89
2021/10/27 04:24:25;;;;;;;37.23;16.83;;;;;;;;;;6228180;23;20666;-91
2021/10/27 04:27:31;;;;;;;43.60;18.00;;;;;;;;;;6211352;23;20191;-90
2021/10/27 04:30:37;;;;;;;38.63;17.17;;;;;;;;;;6230997;23;20174;-90
2021/10/27 04:33:42;;;;;;;37.87;18.03;;;;;;;;;;6230829;23;20178;-90
2021/10/27 04:36:47;;;;;;;41.80;18.70;;;;;;;;;;6230479;23;20163;-90
2021/10/27 04:40:01;;;;;;;38.87;18.27;;;;;;;;;;6230810;23;20174;-88
2021/10/27 04:43:07;;;;;;;38.13;17.33;;;;;;;;;;6229253;23;20238;-91
2021/10/27 04:46:13;;;;;;;38.43;18.40;;;;;;;;;;6229210;23;20206;-91
2021/10/27 04:49:21;;;;;;;39.73;17.33;;;;;;;;;;6229788;23;20191;-90
2021/10/27 04:52:27;;;;;;;41.30;18.07;;;;;;;;;;6233379;23;20210;-91
2021/10/27 04:55:32;;;;;;;39.43;17.90;;;;;;;;;;6231157;23;20171;-90
2021/10/27 04:58:39;;;;;;;41.03;18.63;;;;;;;;;;6231588;23;20171;-90
2021/10/27 05:01:47;;;;;;;47.53;19.67;;;;;;;;;;6235738;23;20151;-91
2021/10/27 08:06:56;;;;;;;39.53;16.30;;;;;;;;;;6223536;22;20216;-89
2021/10/27 08:10:01;;;;;;;57.53;17.93;;;;;;;;;;6229476;23;20163;-91
2021/10/27 08:13:09;;;;;;;46.80;18.40;;;;;;;;;;6230898;23;20171;-90
2021/10/27 08:16:19;;;;;;;38.60;17.83;;;;;;;;;;6231394;23;20175;-89
2021/10/27 08:19:25;;;;;;;38.13;17.80;;;;;;;;;;6230365;23;20228;-90
2021/10/27 08:22:34;;;;;;;44.80;18.13;;;;;;;;;;6232499;23;20247;-90
2021/10/27 08:25:43;;;;;;;52.30;18.67;;;;;;;;;;6231741;23;20158;-91
2021/10/27 08:28:54;;;;;;;37.67;16.80;;;;;;;;;;6231055;23;20175;-92
2021/10/27 08:32:06;;;;;;;43.23;18.47;;;;;;;;;;6232121;23;20234;-89
2021/10/27 08:35:13;;;;;;;42.10;18.37;;;;;;;;;;6233364;23;20164;-90
2021/10/27 08:38:23;;;;;;;38.97;17.20;;;;;;;;;;6232078;23;20175;-90
2021/10/27 08:41:28;;;;;;;37.73;16.87;;;;;;;;;;6232107;23;20194;-91
2021/10/27 08:44:34;;;;;;;40.30;17.73;;;;;;;;;;6231070;23;20174;-91
2021/10/27 08:47:40;;;;;;;38.87;17.03;;;;;;;;;;6230150;23;20239;-91
2021/10/27 08:50:45;;;;;;;36.77;17.10;;;;;;;;;;6230367;23;20155;-90
2021/10/27 08:53:54;;;;;;;51.33;18.88;;;;;;;;;;6231500;23;20243;-89
2021/10/27 08:57:03;;;;;;;39.17;18.77;;;;;;;;;;6230632;23;20174;-91
2021/10/27 09:00:14;;;;;;;36.55;17.45;;;;;;;;;;6231128;23;20175;-91
2021/10/27 09:03:26;;;;;;;47.15;17.30;;;;;;;;;;6229282;23;20190;-90
2021/10/27 09:16:58;;;;;;;37.63;16.20;;;;;;;;;;6202209;23;20218;-90
2021/10/27 13:31:49;;;;;;;25.25;11.65;;;;;;;;;;6191485;23;20167;-91
2021/10/27 13:34:55;;;;;;;26.65;11.60;;;;;;;;;;6186847;23;20168;-91
2021/10/27 13:38:01;;;;;;;25.33;12.30;;;;;;;;;;6188465;23;20212;-92
2021/10/27 13:41:10;;;;;;;26.58;11.40;;;;;;;;;;6185932;23;20170;-90
2021/10/27 13:44:18;;;;;;;29.40;12.85;;;;;;;;;;6183863;23;20179;-91
2021/10/27 13:47:31;;;;;;;25.42;11.27;;;;;;;;;;6182523;23;20233;-91
2021/10/27 14:07:41;;;;;;;24.27;11.10;;;;;;;;;;6187843;23;20200;-90
2021/10/27 14:10:57;;;;;;;20.67;10.50;;;;;;;;;;6189366;23;20224;-91
2021/10/27 14:14:13;;;;;;;19.98;10.55;;;;;;;;;;6188093;23;20172;-91
2021/10/27 14:17:37;;;;;;;21.02;10.85;;;;;;;;;;6190437;23;20175;-91
2021/10/27 14:48:29;;;;;;;18.85;8.98;;;;;;;;;;6191224;23;20213;-92
2021/10/27 15:22:49;;;;;;;27.75;13.57;;;;;;;;;;6188405;23;20164;-91
2021/10/27 15:29:27;;;;;;;34.10;15.52;;;;;;;;;;6186269;23;20207;-91
2021/10/27 15:32:46;;;;;;;35.33;15.45;;;;;;;;;;6186422;23;20212;-91
2021/10/27 15:36:04;;;;;;;34.95;15.10;;;;;;;;;;6186118;23;20192;-92
2021/10/27 15:52:55;;;;;;;41.15;20.45;;;;;;;;;;6185894;23;20281;-91
2021/10/27 15:56:04;;;;;;;49.90;20.38;;;;;;;;;;6185222;23;20203;-92
2021/10/27 15:59:12;;;;;;;45.67;21.38;;;;;;;;;;6187089;23;20179;-91
2021/10/27 16:02:18;;;;;;;42.85;19.65;;;;;;;;;;6186053;23;20215;-90
2021/10/27 16:05:25;;;;;;;41.65;19.35;;;;;;;;;;6187997;23;20166;-90
2021/10/27 16:08:32;;;;;;;120.82;51.22;;;;;;;;;;6187662;23;20219;-91
2021/10/27 16:11:40;;;;;;;37.55;17.20;;;;;;;;;;6187539;23;20180;-90
2021/10/27 16:14:47;;;;;;;37.67;16.10;;;;;;;;;;6187158;23;20216;-90
2021/10/27 16:17:53;;;;;;;35.45;16.42;;;;;;;;;;6189205;23;20192;-90
2021/10/27 16:21:01;;;;;;;35.85;15.98;;;;;;;;;;6188026;23;20156;-90
2021/10/27 16:24:08;;;;;;;41.55;16.55;;;;;;;;;;6204902;23;20172;-90
2021/10/27 16:27:19;;;;;;;41.97;18.65;;;;;;;;;;6186784;23;20216;-90
2021/10/27 16:30:28;;;;;;;42.53;19.67;;;;;;;;;;6187652;23;20203;-90
2021/10/27 16:33:34;;;;;;;39.70;17.20;;;;;;;;;;6186739;23;20172;-90
2021/10/27 16:36:39;;;;;;;36.70;17.85;;;;;;;;;;6187531;23;20231;-92
2021/10/27 16:39:46;;;;;;;41.60;18.75;;;;;;;;;;6187378;23;20175;-90
2021/10/27 16:42:55;;;;;;;44.53;20.05;;;;;;;;;;6204278;23;20208;-88
2021/10/27 16:46:01;;;;;;;40.80;17.90;;;;;;;;;;6187536;23;20228;-90
2021/10/27 16:49:06;;;;;;;57.88;21.23;;;;;;;;;;6185061;23;20195;-91
2021/10/27 16:52:12;;;;;;;49.63;21.50;;;;;;;;;;6184903;23;20219;-91
2021/10/27 16:55:20;;;;;;;45.92;20.48;;;;;;;;;;6182393;23;20172;-90
2021/10/27 17:02:47;;;;;;;42.50;20.17;;;;;;;;;;6200071;23;20151;-91
2021/10/27 17:05:53;;;;;;;49.03;22.63;;;;;;;;;;6182337;23;20577;-90
2021/10/27 17:08:59;;;;;;;48.72;21.33;;;;;;;;;;6200195;23;20206;-89
2021/10/27 17:12:04;;;;;;;44.75;19.73;;;;;;;;;;6183008;23;20265;-90
2021/10/27 17:15:23;;;;;;;48.38;20.02;;;;;;;;;;6183014;23;20171;-91
2021/10/27 17:18:34;;;;;;;42.08;19.33;;;;;;;;;;6203121;23;20172;-89
2021/10/27 17:21:45;;;;;;;39.65;18.10;;;;;;;;;;6182607;23;20235;-91
2021/10/27 17:24:53;;;;;;;44.45;19.30;;;;;;;;;;6181610;23;20172;-90
2021/10/27 17:27:58;;;;;;;45.70;18.83;;;;;;;;;;6183598;23;20172;-89
2021/10/27 17:31:04;;;;;;;47.88;20.48;;;;;;;;;;6184224;23;20255;-90
2021/10/27 17:34:12;;;;;;;46.70;21.02;;;;;;;;;;6184461;23;20170;-91
2021/10/27 17:37:17;;;;;;;50.97;20.30;;;;;;;;;;6186624;23;20245;-90
2021/10/27 17:40:29;;;;;;;53.75;23.10;;;;;;;;;;6182765;23;20164;-91
2021/10/27 17:43:35;;;;;;;52.28;24.00;;;;;;;;;;6180541;23;20171;-92
2021/10/27 17:46:46;;;;;;;60.05;24.13;;;;;;;;;;6182253;23;20163;-91
2021/10/27 18:00:27;;;;;;;39.33;18.37;;;;;;;;;;6186862;23;20176;-91
2021/10/27 18:03:43;;;;;;;41.27;18.27;;;;;;;;;;6187177;23;20176;-92
2021/10/27 18:06:55;;;;;;;39.33;18.73;;;;;;;;;;6184628;23;20175;-92
2021/10/27 18:10:03;;;;;;;38.53;17.47;;;;;;;;;;6183637;23;20259;-89
2021/10/27 18:13:17;;;;;;;42.43;18.03;;;;;;;;;;6185280;23;20600;-91
2021/10/27 18:20:44;;;;;;;45.23;18.90;;;;;;;;;;6200467;23;20168;-91
2021/10/27 18:24:09;;;;;;;40.00;18.30;;;;;;;;;;6182297;23;20229;-89
2021/10/27 18:37:28;;;;;;;44.07;18.97;;;;;;;;;;6185731;23;20148;-92
2021/10/27 18:40:41;;;;;;;45.10;19.93;;;;;;;;;;6184315;23;20187;-90
2021/10/27 18:43:53;;;;;;;44.40;19.73;;;;;;;;;;6183925;23;20178;-93
2021/10/27 18:47:04;;;;;;;43.37;19.40;;;;;;;;;;6184859;23;20303;-91
2021/10/27 18:50:16;;;;;;;43.80;20.13;;;;;;;;;;6183811;23;20211;-89
2021/10/27 18:53:35;;;;;;;36.00;17.43;;;;;;;;;;6184262;23;20172;-90
2021/10/27 18:57:13;;;;;;;43.03;17.63;;;;;;;;;;6185263;23;20159;-90
2021/10/27 19:00:27;;;;;;;43.30;18.03;;;;;;;;;;6185497;23;20212;-90
2021/10/27 19:10:36;;;;;;;35.67;16.70;;;;;;;;;;6184476;23;20188;-90
2021/10/27 19:14:11;;;;;;;39.20;17.60;;;;;;;;;;6184557;23;20684;-93
2021/10/27 19:21:36;;;;;;;40.87;16.10;;;;;;;;;;6205189;23;20159;-91
2021/10/27 19:24:56;;;;;;;36.93;16.07;;;;;;;;;;6187421;23;20168;-92
2021/10/27 19:28:12;;;;;;;35.40;16.20;;;;;;;;;;6187115;23;20172;-91
2021/10/27 19:31:43;;;;;;;38.90;16.60;;;;;;;;;;6187610;23;20216;-90
2021/10/27 20:09:33;;;;;;;65.10;22.97;;;;;;;;;;6172286;23;20194;-92
2021/10/27 20:17:03;;;;;;;38.90;15.97;;;;;;;;;;6186221;23;20180;-92
2021/10/27 20:30:44;;;;;;;37.10;16.20;;;;;;;;;;6185949;23;20215;-90
2021/10/27 21:20:47;;;;;;;47.13;18.17;;;;;;;;;;6177295;23;20213;-90
2021/10/27 21:23:52;;;;;;;48.87;18.20;;;;;;;;;;6185661;23;20172;-90
2021/10/27 21:27:01;;;;;;;61.60;19.10;;;;;;;;;;6185489;23;20192;-90
2021/10/27 21:43:41;;;;;;;73.07;20.43;;;;;;;;;;6185469;23;20207;-91
2021/10/27 21:46:47;;;;;;;81.20;20.73;;;;;;;;;;6187810;23;20156;-91
2021/10/27 21:49:54;;;;;;;61.40;20.97;;;;;;;;;;6187545;23;20203;-92
2021/10/27 21:53:03;;;;;;;62.30;19.07;;;;;;;;;;6187052;23;20172;-92
2021/10/27 21:56:14;;;;;;;89.00;19.97;;;;;;;;;;6186679;23;20171;-91
2021/10/27 21:59:20;;;;;;;65.63;18.83;;;;;;;;;;6185636;23;20172;-92
2021/10/27 22:06:50;;;;;;;61.27;18.87;;;;;;;;;;6204752;23;20184;-91
2021/10/27 22:09:57;;;;;;;47.57;17.93;;;;;;;;;;6185641;23;20232;-91
2021/10/27 22:13:02;;;;;;;55.73;18.83;;;;;;;;;;6184370;23;20187;-91
2021/10/27 22:20:31;;;;;;;63.23;18.87;;;;;;;;;;6202305;23;20272;-90
2021/10/27 22:23:36;;;;;;;49.50;17.70;;;;;;;;;;6184965;23;20172;-91
2021/10/27 22:26:47;;;;;;;57.43;18.63;;;;;;;;;;6184193;23;20171;-91
2021/10/27 22:29:52;;;;;;;46.90;17.13;;;;;;;;;;6182427;23;20286;-90
2021/10/27 22:33:00;;;;;;;59.50;17.53;;;;;;;;;;6182914;23;20663;-91
2021/10/27 22:36:07;;;;;;;54.80;16.93;;;;;;;;;;6183989;23;20273;-91
2021/10/27 22:39:17;;;;;;;47.60;16.17;;;;;;;;;;6185919;23;20175;-93
2021/10/27 22:42:25;;;;;;;59.17;15.83;;;;;;;;;;6186032;23;20188;-92
2021/10/27 22:45:30;;;;;;;56.20;16.50;;;;;;;;;;6185868;23;20220;-91
2021/10/27 22:48:36;;;;;;;60.90;16.03;;;;;;;;;;6186465;23;20159;-91
2021/10/27 22:51:43;;;;;;;61.63;16.67;;;;;;;;;;6185699;23;20259;-92
2021/10/27 22:54:49;;;;;;;78.47;17.13;;;;;;;;;;6185739;23;20556;-91
2021/10/27 22:57:56;;;;;;;141.93;19.67;;;;;;;;;;6184592;23;20620;-90
2021/10/27 23:01:11;;;;;;;56.50;16.77;;;;;;;;;;6184784;23;20219;-90
2021/10/27 23:04:46;;;;;;;88.40;18.13;;;;;;;;;;6184184;23;20160;-90
2021/10/27 23:07:55;;;;;;;61.53;18.13;;;;;;;;;;6184938;23;20274;-91
2021/10/27 23:11:11;;;;;;;98.73;18.07;;;;;;;;;;6185419;23;20546;-90
2021/10/27 23:42:52;;;;;;;51.77;15.67;;;;;;;;;;6182789;23;20168;-92
2021/10/27 23:46:00;;;;;;;44.60;15.27;;;;;;;;;;6184225;23;20171;-91
2021/10/27 23:49:09;;;;;;;55.27;14.67;;;;;;;;;;6182638;23;20176;-91
2021/10/27 23:52:19;;;;;;;42.70;15.47;;;;;;;;;;6182968;23;20234;-91
2021/10/27 23:55:31;;;;;;;47.33;15.57;;;;;;;;;;6183197;23;20203;-92
